createdAt,value
2023-02-06T00:01:30.960Z,88.42
2023-02-06T00:03:58.663Z,89.16
2023-02-06T00:06:26.443Z,87.74
2023-02-06T00:08:54.372Z,88.70
2023-02-06T00:11:22.553Z,90.01
2023-02-06T00:13:51.858Z,90.51
2023-02-06T00:16:22.099Z,90.15
2023-02-06T00:18:50.696Z,90.37
2023-02-06T00:21:20.253Z,90.23
2023-02-06T00:23:48.175Z,88.80
2023-02-06T00:26:16.004Z,89.96
2023-02-06T00:28:43.989Z,89.97
2023-02-06T00:31:13.746Z,91.80
2023-02-06T00:33:42.155Z,93.19
2023-02-06T00:36:11.163Z,91.15
2023-02-06T00:38:39.077Z,91.06
2023-02-06T00:41:07.066Z,91.87
2023-02-06T00:43:35.453Z,92.07
2023-02-06T00:46:03.285Z,92.34
2023-02-06T00:48:32.462Z,93.07
2023-02-06T00:51:00.210Z,93.18
2023-02-06T00:53:28.137Z,94.08
2023-02-06T00:55:55.940Z,94.58
2023-02-06T00:58:23.931Z,97.29
2023-02-06T01:00:53.106Z,95.41
2023-02-06T01:03:20.942Z,95.65
2023-02-06T01:05:50.138Z,96.01
2023-02-06T01:08:17.835Z,94.36
2023-02-06T01:10:45.790Z,98.40
2023-02-06T01:13:13.795Z,98.58
2023-02-06T01:15:41.778Z,94.18
2023-02-06T01:18:09.544Z,93.35
2023-02-06T01:20:37.372Z,93.13
2023-02-06T01:23:06.577Z,91.74
2023-02-06T01:25:34.978Z,91.85
2023-02-06T01:28:02.972Z,93.07
2023-02-06T01:30:30.829Z,92.70
2023-02-06T01:32:58.700Z,94.39
2023-02-06T01:35:27.915Z,94.83
2023-02-06T01:37:55.652Z,94.28
2023-02-06T01:40:25.077Z,91.43
2023-02-06T01:42:52.984Z,91.50
2023-02-06T01:45:42.945Z,91.16
2023-02-06T01:48:16.166Z,92.75
2023-02-06T01:50:48.097Z,92.49
2023-02-06T01:53:18.346Z,92.43
2023-02-06T01:55:50.527Z,92.06
2023-02-06T01:58:25.388Z,92.58
2023-02-06T02:00:53.336Z,93.74
2023-02-06T02:03:21.302Z,93.82
2023-02-06T02:05:51.564Z,94.67
2023-02-06T02:08:23.656Z,91.80
2023-02-06T02:10:52.995Z,92.04
2023-02-06T02:13:20.703Z,93.10
2023-02-06T02:15:59.210Z,91.76
2023-02-06T02:18:43.180Z,91.78
2023-02-06T02:22:00.938Z,91.30
2023-02-06T02:24:47.572Z,92.01
2023-02-06T02:27:35.535Z,92.00
2023-02-06T02:30:51.084Z,92.32
2023-02-06T02:33:37.400Z,93.38
2023-02-06T02:36:15.724Z,95.21
2023-02-06T02:38:54.729Z,93.54
2023-02-06T02:41:28.834Z,94.67
2023-02-06T02:44:02.869Z,93.46
2023-02-06T02:46:35.872Z,94.97
2023-02-06T02:49:06.789Z,94.61
2023-02-06T02:51:39.043Z,93.13
2023-02-06T02:54:07.147Z,92.90
2023-02-06T02:56:36.095Z,92.43
2023-02-06T02:59:06.591Z,93.22
2023-02-06T03:01:38.720Z,93.67
2023-02-06T03:04:08.764Z,93.63
2023-02-06T03:06:58.005Z,94.43
2023-02-06T03:09:36.327Z,93.30
2023-02-06T03:12:11.267Z,93.06
2023-02-06T03:14:46.446Z,92.02
2023-02-06T03:17:19.848Z,90.63
2023-02-06T03:19:52.892Z,90.57
2023-02-06T03:22:22.809Z,90.45
2023-02-06T03:24:52.101Z,91.95
2023-02-06T03:27:21.665Z,91.79
2023-02-06T03:29:51.414Z,90.92
2023-02-06T03:32:24.357Z,91.62
2023-02-06T03:34:59.068Z,89.45
2023-02-06T03:37:29.911Z,91.21
2023-02-06T03:40:00.567Z,92.08
2023-02-06T03:42:30.705Z,92.09
2023-02-06T03:45:03.108Z,92.09
2023-02-06T03:47:32.600Z,91.74
2023-02-06T03:50:02.376Z,91.47
2023-02-06T03:52:36.872Z,93.24
2023-02-06T03:55:09.415Z,92.87
2023-02-06T03:57:38.959Z,92.79
2023-02-06T04:00:07.772Z,94.76
2023-02-06T04:02:36.424Z,93.03
2023-02-06T04:05:04.295Z,94.47
2023-02-06T04:07:36.195Z,93.14
2023-02-06T04:10:04.726Z,94.06
2023-02-06T04:12:32.622Z,92.79
2023-02-06T04:15:00.353Z,94.79
2023-02-06T04:17:43.101Z,94.91
2023-02-06T04:20:12.084Z,93.06
2023-02-06T04:22:41.866Z,94.20
2023-02-06T04:25:09.993Z,95.13
2023-02-06T04:27:38.529Z,93.65
2023-02-06T04:30:07.448Z,94.60
2023-02-06T04:32:35.277Z,96.58
2023-02-06T04:35:03.214Z,97.79
2023-02-06T04:37:30.960Z,97.20
2023-02-06T04:40:00.120Z,95.03
2023-02-06T04:42:28.100Z,94.15
2023-02-06T04:44:55.798Z,94.30
2023-02-06T04:47:23.561Z,97.52
2023-02-06T04:49:51.303Z,96.33
2023-02-06T04:52:19.076Z,97.47
2023-02-06T04:54:46.835Z,95.37
2023-02-06T04:57:16.068Z,95.58
2023-02-06T04:59:43.767Z,94.89
2023-02-06T05:02:11.494Z,93.77
2023-02-06T05:04:39.509Z,95.50
2023-02-06T05:07:07.423Z,95.66
2023-02-06T05:09:35.246Z,98.15
2023-02-06T05:12:02.993Z,97.49
2023-02-06T05:14:32.306Z,96.01
2023-02-06T05:17:00.065Z,98.78
2023-02-06T05:19:27.839Z,98.57
2023-02-06T05:21:55.605Z,98.07
2023-02-06T05:24:23.385Z,98.22
2023-02-06T05:26:51.132Z,99.63
2023-02-06T05:29:18.888Z,98.22
2023-02-06T05:31:48.041Z,97.00
2023-02-06T05:34:15.784Z,98.05
2023-02-06T05:36:43.556Z,98.25
2023-02-06T05:39:11.256Z,98.77
2023-02-06T05:41:39.021Z,98.21
2023-02-06T05:44:06.876Z,100.00
2023-02-06T05:46:34.662Z,98.73
2023-02-06T05:49:03.824Z,98.59
2023-02-06T05:51:31.699Z,96.63
2023-02-06T05:53:59.527Z,98.10
2023-02-06T05:56:27.308Z,97.89
2023-02-06T05:58:55.096Z,97.09
2023-02-06T06:01:22.852Z,98.71
2023-02-06T06:03:50.599Z,97.04
2023-02-06T06:06:19.726Z,97.09
2023-02-06T06:08:47.493Z,97.54
2023-02-06T06:11:15.368Z,96.88
2023-02-06T06:13:43.136Z,97.35
2023-02-06T06:16:10.981Z,96.76
2023-02-06T06:18:38.799Z,98.19
2023-02-06T06:21:06.936Z,98.79
2023-02-06T06:23:36.052Z,99.32
2023-02-06T06:26:04.007Z,100.00
2023-02-06T06:28:31.700Z,100.00
2023-02-06T06:31:03.391Z,99.76
2023-02-06T06:33:31.233Z,97.72
2023-02-06T06:35:59.127Z,99.22
2023-02-06T06:38:27.176Z,100.00
2023-02-06T06:40:56.320Z,100.00
2023-02-06T06:43:24.375Z,98.28
2023-02-06T06:45:52.570Z,96.89
2023-02-06T06:48:20.371Z,96.55
2023-02-06T06:50:49.470Z,94.67
2023-02-06T06:53:17.551Z,95.24
2023-02-06T06:55:45.861Z,95.54
2023-02-06T06:58:15.166Z,95.83
2023-02-06T07:00:43.005Z,96.85
2023-02-06T07:03:11.698Z,97.50
2023-02-06T07:05:39.928Z,97.31
2023-02-06T07:08:07.671Z,95.59
2023-02-06T07:10:35.471Z,96.87
2023-02-06T07:13:03.271Z,97.90
2023-02-06T07:15:32.629Z,96.80
2023-02-06T07:18:00.440Z,97.19
2023-02-06T07:20:28.534Z,96.62
2023-02-06T07:22:56.478Z,98.82
2023-02-06T07:25:24.311Z,98.30
2023-02-06T07:27:52.073Z,97.64
2023-02-06T07:30:20.358Z,96.29
2023-02-06T07:32:50.118Z,97.51
2023-02-06T07:35:18.109Z,98.10
2023-02-06T07:37:45.911Z,95.53
2023-02-06T07:40:14.276Z,96.50
2023-02-06T07:42:42.093Z,96.56
2023-02-06T07:45:10.676Z,96.32
2023-02-06T07:47:38.522Z,97.42
2023-02-06T07:50:08.390Z,96.91
2023-02-06T07:52:36.596Z,98.57
2023-02-06T07:55:04.637Z,98.43
2023-02-06T07:57:32.452Z,98.06
2023-02-06T08:00:00.243Z,97.86
2023-02-06T08:02:28.236Z,97.36
2023-02-06T08:04:55.952Z,97.49
2023-02-06T08:07:25.128Z,98.34
2023-02-06T08:09:52.815Z,97.80
2023-02-06T08:12:20.627Z,99.01
2023-02-06T08:14:48.581Z,97.90
2023-02-06T08:17:18.345Z,97.70
2023-02-06T08:19:47.217Z,98.36
2023-02-06T08:22:14.968Z,98.53
2023-02-06T08:24:44.206Z,99.37
2023-02-06T08:27:12.040Z,97.00
2023-02-06T08:29:42.537Z,97.89
2023-02-06T08:32:11.018Z,96.81
2023-02-06T08:34:39.869Z,96.38
2023-02-06T08:37:07.739Z,97.21
2023-02-06T08:39:35.525Z,97.14
2023-02-06T08:42:05.486Z,95.55
2023-02-06T08:44:33.842Z,94.71
2023-02-06T08:47:09.996Z,94.96
2023-02-06T08:49:38.877Z,96.53
2023-02-06T08:52:06.829Z,96.04
2023-02-06T08:54:36.864Z,94.62
2023-02-06T08:57:07.591Z,95.13
2023-02-06T08:59:35.911Z,96.00
2023-02-06T09:02:03.759Z,96.47
2023-02-06T09:04:32.671Z,95.64
2023-02-06T09:07:00.642Z,94.96
2023-02-06T09:09:28.414Z,95.81
2023-02-06T09:12:02.085Z,94.53
2023-02-06T09:14:32.159Z,95.86
2023-02-06T09:17:01.189Z,95.07
2023-02-06T09:19:29.121Z,96.90
2023-02-06T09:21:57.807Z,96.70
2023-02-06T09:24:27.316Z,95.65
2023-02-06T09:26:59.883Z,95.81
2023-02-06T09:29:29.724Z,95.49
2023-02-06T09:31:59.308Z,95.22
2023-02-06T09:34:28.326Z,94.68
2023-02-06T09:36:56.782Z,94.93
2023-02-06T09:39:25.300Z,94.20
2023-02-06T09:41:55.171Z,94.34
2023-02-06T09:44:29.591Z,94.99
2023-02-06T09:47:03.045Z,96.20
2023-02-06T09:49:38.011Z,95.73
2023-02-06T09:52:39.847Z,94.74
2023-02-06T09:55:15.416Z,93.61
2023-02-06T09:57:51.587Z,93.90
2023-02-06T10:00:35.386Z,93.69
2023-02-06T10:03:17.132Z,92.62
2023-02-06T10:05:51.987Z,92.31
2023-02-06T10:08:24.464Z,93.10
2023-02-06T10:10:56.239Z,90.41
2023-02-06T10:13:28.847Z,90.97
2023-02-06T10:16:01.481Z,91.07
2023-02-06T10:18:37.264Z,90.74
2023-02-06T10:21:10.306Z,90.13
2023-02-06T10:23:42.839Z,90.00
2023-02-06T10:26:17.220Z,89.80
2023-02-06T10:28:46.331Z,88.11
2023-02-06T10:31:39.199Z,88.91
2023-02-06T10:34:34.563Z,89.02
2023-02-06T10:37:19.618Z,86.86
2023-02-06T10:40:13.498Z,87.75
2023-02-06T10:42:51.132Z,86.48
2023-02-06T10:45:32.846Z,86.71
2023-02-06T10:48:12.027Z,87.15
2023-02-06T10:50:45.941Z,87.82
2023-02-06T10:53:19.039Z,86.35
2023-02-06T10:55:50.724Z,86.50
2023-02-06T10:58:23.744Z,85.22
2023-02-06T11:00:53.241Z,85.30
2023-02-06T11:03:25.450Z,85.13
2023-02-06T11:05:54.865Z,85.74
2023-02-06T11:08:28.571Z,84.55
2023-02-06T11:10:56.778Z,84.32
2023-02-06T11:13:28.384Z,83.13
2023-02-06T11:16:02.686Z,83.04
2023-02-06T11:18:34.869Z,82.76
2023-02-06T11:21:04.886Z,82.88
2023-02-06T11:23:34.647Z,82.25
2023-02-06T11:26:14.133Z,81.74
2023-02-06T11:28:52.320Z,82.24
2023-02-06T11:31:22.398Z,81.45
2023-02-06T11:33:53.253Z,81.78
2023-02-06T11:36:30.471Z,81.35
2023-02-06T11:39:00.580Z,79.73
2023-02-06T11:41:29.581Z,79.78
2023-02-06T11:44:02.589Z,79.86
2023-02-06T11:46:32.426Z,80.33
2023-02-06T11:49:06.228Z,81.40
2023-02-06T11:51:51.225Z,79.63
2023-02-06T11:54:28.510Z,80.10
2023-02-06T11:57:03.251Z,80.59
2023-02-06T11:59:34.529Z,81.67
2023-02-06T12:02:05.658Z,80.97
2023-02-06T12:04:37.857Z,80.03
2023-02-06T12:07:15.121Z,78.74
2023-02-06T12:09:42.952Z,78.68
2023-02-06T12:12:20.455Z,79.42
2023-02-06T12:14:54.877Z,78.76
2023-02-06T12:17:28.269Z,77.50
2023-02-06T12:20:04.256Z,78.18
2023-02-06T12:22:39.459Z,77.43
2023-02-06T12:25:22.716Z,74.31
2023-02-06T12:27:53.078Z,76.21
2023-02-06T12:30:30.455Z,75.84
2023-02-06T12:33:06.121Z,74.34
2023-02-06T12:35:37.707Z,75.85
2023-02-06T12:38:22.106Z,75.95
2023-02-06T12:41:02.579Z,74.02
2023-02-06T12:43:35.457Z,73.69
2023-02-06T12:46:08.289Z,73.40
2023-02-06T12:48:42.639Z,73.55
2023-02-06T12:51:18.141Z,72.47
2023-02-06T12:53:52.316Z,72.83
2023-02-06T12:56:28.609Z,70.61
2023-02-06T12:59:06.862Z,70.19
2023-02-06T13:01:46.609Z,70.23
2023-02-06T13:04:17.706Z,70.69
2023-02-06T13:06:53.077Z,70.40
2023-02-06T13:09:29.001Z,70.49
2023-02-06T13:12:09.440Z,70.90
2023-02-06T13:14:39.808Z,68.97
2023-02-06T13:17:11.810Z,67.97
2023-02-06T13:20:00.988Z,69.02
2023-02-06T13:22:49.282Z,69.84
2023-02-06T13:25:53.786Z,69.95
2023-02-06T13:29:00.896Z,68.14
2023-02-06T13:31:31.945Z,65.31
2023-02-06T13:34:02.753Z,66.98
2023-02-06T13:37:10.728Z,67.95
2023-02-06T13:39:38.496Z,67.19
2023-02-06T13:42:36.133Z,66.35
2023-02-06T13:45:07.374Z,67.47
2023-02-06T13:48:22.786Z,67.21
2023-02-06T13:51:08.020Z,66.42
2023-02-06T13:54:07.057Z,67.32
2023-02-06T13:56:48.115Z,66.47
2023-02-06T13:59:18.713Z,66.23
2023-02-06T14:01:47.972Z,67.43
2023-02-06T14:04:23.311Z,65.26
2023-02-06T14:07:21.913Z,64.14
2023-02-06T14:10:05.222Z,64.78
2023-02-06T14:12:45.308Z,64.38
2023-02-06T14:15:22.664Z,63.58
2023-02-06T14:18:13.622Z,63.80
2023-02-06T14:20:50.415Z,63.24
2023-02-06T14:23:28.189Z,62.66
2023-02-06T14:26:09.274Z,63.13
2023-02-06T14:28:49.679Z,61.80
2023-02-06T14:31:27.194Z,61.96
2023-02-06T14:34:07.786Z,62.02
2023-02-06T14:37:00.656Z,63.78
2023-02-06T14:39:40.690Z,63.12
2023-02-06T14:42:13.273Z,61.74
2023-02-06T14:44:43.884Z,61.69
2023-02-06T14:47:19.352Z,61.00
2023-02-06T14:49:50.311Z,60.55
2023-02-06T14:52:21.211Z,62.00
2023-02-06T14:54:50.385Z,63.29
2023-02-06T14:57:23.957Z,62.55
2023-02-06T14:59:57.530Z,63.08
2023-02-06T15:02:28.773Z,61.05
2023-02-06T15:04:59.416Z,60.40
2023-02-06T15:07:32.151Z,62.16
2023-02-06T15:10:05.696Z,62.45
2023-02-06T15:12:34.498Z,61.07
2023-02-06T15:15:15.360Z,59.00
2023-02-06T15:17:43.822Z,60.95
2023-02-06T15:20:29.111Z,60.44
2023-02-06T15:23:11.704Z,59.75
2023-02-06T15:25:54.542Z,61.33
2023-02-06T15:28:28.403Z,60.83
2023-02-06T15:30:58.959Z,61.20
2023-02-06T15:33:29.034Z,60.65
2023-02-06T15:36:00.935Z,59.76
2023-02-06T15:38:31.475Z,58.48
2023-02-06T15:41:02.023Z,58.81
2023-02-06T15:43:31.414Z,58.77
2023-02-06T15:46:02.657Z,58.80
2023-02-06T15:48:41.520Z,59.63
2023-02-06T15:51:31.567Z,59.32
2023-02-06T15:54:10.705Z,59.06
2023-02-06T15:56:41.771Z,59.40
2023-02-06T15:59:21.773Z,58.95
2023-02-06T16:01:51.211Z,58.65
2023-02-06T16:04:24.341Z,57.75
2023-02-06T16:07:06.839Z,57.84
2023-02-06T16:09:47.150Z,58.23
2023-02-06T16:12:16.866Z,57.78
2023-02-06T16:14:55.688Z,57.66
2023-02-06T16:17:29.319Z,57.92
2023-02-06T16:19:59.947Z,58.40
2023-02-06T16:22:30.955Z,58.79
2023-02-06T16:25:16.428Z,58.48
2023-02-06T16:27:46.378Z,58.01
2023-02-06T16:30:25.348Z,57.82
2023-02-06T16:32:55.458Z,58.30
2023-02-06T16:35:24.109Z,58.08
2023-02-06T16:37:54.923Z,57.65
2023-02-06T16:40:23.194Z,57.48
2023-02-06T16:42:51.970Z,57.51
2023-02-06T16:45:24.930Z,57.25
2023-02-06T16:47:53.252Z,58.08
2023-02-06T16:50:22.352Z,57.72
2023-02-06T16:52:51.973Z,58.77
2023-02-06T16:55:23.621Z,58.22
2023-02-06T16:57:54.485Z,57.87
2023-02-06T17:00:24.730Z,57.43
2023-02-06T17:02:53.395Z,57.58
2023-02-06T17:05:23.571Z,57.12
2023-02-06T17:07:51.897Z,57.44
2023-02-06T17:10:22.737Z,57.76
2023-02-06T17:12:50.868Z,58.06
2023-02-06T17:15:20.034Z,57.42
2023-02-06T17:17:47.833Z,57.84
2023-02-06T17:20:25.554Z,57.72
2023-02-06T17:22:53.331Z,58.07
2023-02-06T17:25:22.497Z,58.20
2023-02-06T17:27:50.369Z,57.29
2023-02-06T17:30:20.474Z,57.94
2023-02-06T17:32:48.781Z,57.77
2023-02-06T17:35:16.915Z,58.00
2023-02-06T17:37:44.955Z,58.33
2023-02-06T17:40:19.931Z,57.40
2023-02-06T17:42:49.176Z,57.62
2023-02-06T17:45:17.209Z,57.66
2023-02-06T17:47:45.001Z,58.14
2023-02-06T17:50:15.441Z,58.38
2023-02-06T17:52:43.270Z,58.33
2023-02-06T17:55:11.824Z,58.17
2023-02-06T17:57:39.827Z,58.28
2023-02-06T18:00:13.459Z,58.43
2023-02-06T18:02:41.302Z,58.72
2023-02-06T18:05:10.026Z,57.96
2023-02-06T18:07:38.753Z,58.19
2023-02-06T18:10:07.976Z,57.55
2023-02-06T18:12:35.757Z,57.74
2023-02-06T18:15:04.232Z,57.05
2023-02-06T18:17:33.460Z,56.80
2023-02-06T18:20:01.451Z,57.24
2023-02-06T18:22:29.319Z,57.77
2023-02-06T18:24:57.310Z,57.83
2023-02-06T18:27:25.115Z,57.62
2023-02-06T18:29:55.086Z,58.86
2023-02-06T18:32:22.899Z,58.44
2023-02-06T18:34:52.172Z,58.51
2023-02-06T18:37:19.953Z,59.01
2023-02-06T18:39:47.867Z,58.75
2023-02-06T18:42:33.283Z,58.86
2023-02-06T18:45:03.715Z,58.78
2023-02-06T18:47:31.924Z,58.72
2023-02-06T18:50:01.011Z,59.54
2023-02-06T18:52:29.071Z,59.37
2023-02-06T18:54:56.859Z,59.70
2023-02-06T18:57:24.654Z,59.63
2023-02-06T18:59:52.580Z,59.80
2023-02-06T19:02:20.400Z,59.32
2023-02-06T19:04:48.266Z,60.08
2023-02-06T19:07:17.423Z,60.49
2023-02-06T19:09:45.418Z,60.61
2023-02-06T19:12:13.140Z,61.24
2023-02-06T19:14:41.052Z,60.52
2023-02-06T19:17:08.804Z,60.15
2023-02-06T19:19:36.556Z,61.20
2023-02-06T19:22:04.448Z,60.46
2023-02-06T19:24:33.591Z,61.86
2023-02-06T19:27:02.046Z,61.77
2023-02-06T19:29:36.238Z,61.75
2023-02-06T19:32:05.702Z,61.93
2023-02-06T19:34:36.012Z,61.80
2023-02-06T19:37:04.100Z,62.36
2023-02-06T19:39:34.358Z,62.13
2023-02-06T19:42:04.130Z,62.01
2023-02-06T19:44:33.378Z,61.44
2023-02-06T19:47:01.524Z,60.97
2023-02-06T19:49:29.691Z,60.70
2023-02-06T19:51:57.531Z,60.76
2023-02-06T19:54:25.349Z,61.00
2023-02-06T19:56:54.635Z,60.19
2023-02-06T19:59:24.944Z,59.14
2023-02-06T20:01:55.002Z,60.69
2023-02-06T20:04:25.519Z,60.68
2023-02-06T20:06:53.799Z,61.02
2023-02-06T20:09:21.864Z,61.32
2023-02-06T20:11:50.308Z,61.61
2023-02-06T20:14:19.991Z,62.04
2023-02-06T20:16:48.965Z,61.89
2023-02-06T20:19:18.663Z,61.98
2023-02-06T20:21:49.190Z,62.59
2023-02-06T20:24:20.754Z,62.54
2023-02-06T20:26:50.112Z,62.90
2023-02-06T20:29:21.861Z,62.01
2023-02-06T20:31:50.383Z,62.58
2023-02-06T20:34:19.320Z,62.30
2023-02-06T20:36:47.699Z,62.37
2023-02-06T20:39:16.271Z,62.58
2023-02-06T20:41:46.382Z,63.73
2023-02-06T20:44:15.054Z,62.99
2023-02-06T20:46:44.445Z,63.59
2023-02-06T20:49:15.596Z,63.05
2023-02-06T20:51:43.523Z,63.92
2023-02-06T20:54:12.028Z,64.01
2023-02-06T20:56:40.402Z,64.48
2023-02-06T20:59:08.712Z,64.97
2023-02-06T21:01:36.594Z,64.87
2023-02-06T21:04:07.804Z,65.39
2023-02-06T21:06:36.880Z,64.01
2023-02-06T21:09:06.897Z,65.29
2023-02-06T21:11:37.295Z,64.80
2023-02-06T21:14:06.569Z,65.71
2023-02-06T21:16:35.941Z,65.05
2023-02-06T21:19:06.282Z,66.08
2023-02-06T21:21:34.348Z,65.33
2023-02-06T21:24:02.173Z,65.76
2023-02-06T21:26:30.763Z,66.76
2023-02-06T21:28:59.753Z,66.02
2023-02-06T21:31:35.396Z,65.82
2023-02-06T21:34:09.736Z,65.40
2023-02-06T21:36:38.996Z,65.50
2023-02-06T21:39:07.767Z,65.88
2023-02-06T21:41:36.175Z,66.68
2023-02-06T21:44:04.662Z,66.66
2023-02-06T21:46:33.348Z,67.41
2023-02-06T21:49:01.177Z,67.34
2023-02-06T21:51:30.624Z,66.02
2023-02-06T21:53:58.785Z,67.46
2023-02-06T21:56:28.856Z,66.63
2023-02-06T21:58:56.975Z,66.51
2023-02-06T22:01:27.644Z,66.86
2023-02-06T22:03:59.628Z,67.28
2023-02-06T22:06:28.872Z,67.13
2023-02-06T22:09:05.018Z,66.71
2023-02-06T22:11:33.141Z,66.83
2023-02-06T22:14:02.906Z,69.04
2023-02-06T22:16:30.901Z,68.59
2023-02-06T22:19:00.656Z,67.02
2023-02-06T22:21:30.047Z,68.21
2023-02-06T22:24:00.970Z,67.24
2023-02-06T22:26:30.480Z,67.69
2023-02-06T22:28:59.179Z,67.59
2023-02-06T22:31:29.445Z,68.85
2023-02-06T22:33:58.790Z,69.25
2023-02-06T22:36:29.731Z,67.55
2023-02-06T22:39:00.677Z,67.55
2023-02-06T22:41:29.056Z,67.05
2023-02-06T22:43:56.885Z,66.95
2023-02-06T22:46:28.137Z,66.38
2023-02-06T22:48:56.348Z,66.92
2023-02-06T22:51:24.665Z,66.56
2023-02-06T22:53:53.160Z,67.61
2023-02-06T22:56:27.940Z,68.43
2023-02-06T22:58:57.616Z,69.75
2023-02-06T23:01:30.061Z,70.14
2023-02-06T23:03:58.721Z,69.44
2023-02-06T23:06:27.475Z,68.79
2023-02-06T23:08:56.436Z,66.88
2023-02-06T23:11:26.447Z,69.05
2023-02-06T23:13:55.726Z,68.16
2023-02-06T23:16:24.603Z,69.35
2023-02-06T23:18:52.490Z,68.62
2023-02-06T23:21:22.680Z,69.73
2023-02-06T23:23:50.746Z,69.54
2023-02-06T23:26:20.543Z,69.46
2023-02-06T23:28:49.911Z,70.11
2023-02-06T23:31:17.900Z,70.38
2023-02-06T23:33:45.779Z,71.79
2023-02-06T23:36:15.914Z,71.50
2023-02-06T23:38:44.477Z,72.42
2023-02-06T23:41:14.863Z,73.13
2023-02-06T23:43:43.168Z,74.12
2023-02-06T23:46:13.248Z,74.19
2023-02-06T23:48:41.079Z,71.25
2023-02-06T23:51:08.898Z,69.91
2023-02-06T23:53:36.716Z,69.28
2023-02-06T23:56:11.048Z,71.47
2023-02-06T23:58:38.803Z,71.43
